Time;durP1;ratioP1;P1;durP2;ratioP2;P2;SDS_P1;SDS_P2;PMS_P1;PMS_P2;Temp;Humidity;BMP_temperature;BMP_pressure;BME280_temperature;BME280_humidity;BME280_pressure;Samples;Min_cycle;Max_cycle;Signal;HPM_P1;HPM_P2
2024/01/01 00:01:43;;;;;;;0.20;0.20;;;;;;;;;;5049559;28;20053;-77
2024/01/01 00:04:10;;;;;;;1.02;0.82;;;;;;;;;;5067300;28;20910;-77
2024/01/01 00:06:36;;;;;;;0.10;0.10;;;;;;;;;;5067571;28;20522;-77
2024/01/01 00:09:03;;;;;;;0.45;0.45;;;;;;;;;;5068128;28;20111;-77
2024/01/01 00:11:30;;;;;;;0.82;0.70;;;;;;;;;;5047862;28;20064;-77
2024/01/01 00:13:56;;;;;;;0.13;0.13;;;;;;;;;;5066664;28;20059;-77
2024/01/01 00:16:23;;;;;;;1.25;1.20;;;;;;;;;;5062776;28;20057;-77
2024/01/01 00:18:50;;;;;;;2.00;1.23;;;;;;;;;;5063848;28;20122;-76
2024/01/01 00:21:17;;;;;;;1.88;1.23;;;;;;;;;;5063792;28;20053;-77
2024/01/01 00:23:43;;;;;;;0.10;0.10;;;;;;;;;;5067496;28;20089;-77
2024/01/01 00:26:10;;;;;;;0.30;0.30;;;;;;;;;;5066895;28;20060;-77
2024/01/01 00:28:36;;;;;;;1.77;0.50;;;;;;;;;;5067210;28;20057;-77
2024/01/01 00:31:03;;;;;;;0.10;0.10;;;;;;;;;;5060756;28;20057;-77
2024/01/01 00:33:29;;;;;;;0.20;0.20;;;;;;;;;;5067702;28;20049;-77
2024/01/01 00:35:56;;;;;;;0.10;0.10;;;;;;;;;;5065647;28;20175;-76
2024/01/01 00:38:22;;;;;;;1.02;0.95;;;;;;;;;;5051525;28;20045;-77
2024/01/01 00:40:48;;;;;;;2.20;1.45;;;;;;;;;;5067717;28;20511;-77
2024/01/01 00:43:15;;;;;;;3.25;3.05;;;;;;;;;;5062562;28;20510;-77
2024/01/01 00:45:41;;;;;;;0.25;0.25;;;;;;;;;;5060094;28;20522;-77
2024/01/01 00:48:15;;;;;;;0.10;0.10;;;;;;;;;;5062789;28;20053;-77
2024/01/01 00:50:41;;;;;;;1.63;1.52;;;;;;;;;;5049139;28;20451;-77
2024/01/01 00:53:08;;;;;;;0.60;0.52;;;;;;;;;;5060076;28;20139;-77
2024/01/01 00:55:34;;;;;;;0.30;0.30;;;;;;;;;;5047493;28;20358;-77
2024/01/01 00:58:01;;;;;;;0.57;0.57;;;;;;;;;;5064853;28;20057;-76
2024/01/01 01:00:28;;;;;;;0.10;0.10;;;;;;;;;;5067000;28;20152;-77
2024/01/01 01:02:54;;;;;;;0.10;0.10;;;;;;;;;;5067961;28;20064;-77
2024/01/01 01:05:24;;;;;;;0.35;0.32;;;;;;;;;;5065716;28;20077;-77
2024/01/01 01:07:50;;;;;;;0.10;0.10;;;;;;;;;;5064638;28;20041;-77
2024/01/01 01:10:17;;;;;;;0.30;0.30;;;;;;;;;;5066507;28;20049;-77
2024/01/01 01:12:44;;;;;;;0.10;0.10;;;;;;;;;;5067167;28;20060;-77
2024/01/01 01:15:10;;;;;;;0.20;0.20;;;;;;;;;;5066177;28;20107;-77
2024/01/01 01:17:36;;;;;;;0.10;0.10;;;;;;;;;;5066364;28;20052;-77
2024/01/01 01:20:05;;;;;;;0.17;0.17;;;;;;;;;;5068913;28;20542;-77
2024/01/01 01:22:33;;;;;;;0.13;0.13;;;;;;;;;;5068197;28;20069;-77
2024/01/01 01:24:59;;;;;;;0.10;0.10;;;;;;;;;;5066285;28;20059;-77
2024/01/01 01:27:26;;;;;;;0.10;0.10;;;;;;;;;;5066394;28;20049;-77
2024/01/01 01:29:52;;;;;;;0.10;0.10;;;;;;;;;;5066885;28;20048;-77
2024/01/01 01:32:18;;;;;;;0.13;0.13;;;;;;;;;;5066643;28;20590;-77
2024/01/01 01:34:45;;;;;;;0.32;0.32;;;;;;;;;;5066874;28;20061;-77
2024/01/01 01:37:11;;;;;;;0.45;0.45;;;;;;;;;;5067841;28;20057;-76
2024/01/01 01:39:37;;;;;;;0.10;0.10;;;;;;;;;;5068302;28;20049;-77
2024/01/01 01:42:04;;;;;;;0.20;0.20;;;;;;;;;;5070128;28;20528;-77
2024/01/01 01:44:32;;;;;;;0.10;0.10;;;;;;;;;;5070563;28;20529;-77
2024/01/01 01:46:58;;;;;;;0.10;0.10;;;;;;;;;;5070646;28;20136;-77
2024/01/01 01:49:25;;;;;;;0.10;0.10;;;;;;;;;;5070220;28;20060;-77
2024/01/01 01:51:51;;;;;;;0.10;0.10;;;;;;;;;;5069995;28;20059;-77
2024/01/01 01:54:18;;;;;;;0.10;0.10;;;;;;;;;;5074052;28;20131;-77
2024/01/01 01:56:44;;;;;;;0.30;0.30;;;;;;;;;;5069445;28;20507;-77
2024/01/01 01:59:11;;;;;;;0.10;0.10;;;;;;;;;;5069548;28;20132;-77
2024/01/01 02:01:38;;;;;;;0.10;0.10;;;;;;;;;;5069216;28;20060;-77
2024/01/01 02:04:05;;;;;;;0.10;0.10;;;;;;;;;;5069850;28;20060;-77
2024/01/01 02:06:31;;;;;;;0.10;0.10;;;;;;;;;;5066656;28;20150;-77
2024/01/01 02:08:59;;;;;;;0.10;0.10;;;;;;;;;;5062121;28;20064;-77
2024/01/01 02:11:25;;;;;;;1.17;0.82;;;;;;;;;;5067630;28;20058;-77
2024/01/01 02:13:52;;;;;;;0.10;0.10;;;;;;;;;;5065002;28;20052;-77
2024/01/01 02:16:20;;;;;;;0.10;0.10;;;;;;;;;;5067529;28;20076;-77
2024/01/01 02:18:47;;;;;;;0.10;0.10;;;;;;;;;;5068507;28;20418;-77
2024/01/01 02:21:13;;;;;;;0.10;0.10;;;;;;;;;;5062318;28;20053;-77
2024/01/01 02:23:39;;;;;;;0.10;0.10;;;;;;;;;;5066095;28;20053;-77
2024/01/01 02:26:07;;;;;;;0.10;0.10;;;;;;;;;;5066471;28;20053;-77
2024/01/01 02:28:34;;;;;;;0.10;0.10;;;;;;;;;;5072297;28;20060;-77
2024/01/01 02:31:00;;;;;;;0.10;0.10;;;;;;;;;;5051757;28;20048;-77
2024/01/01 02:33:27;;;;;;;0.10;0.10;;;;;;;;;;5057123;28;20135;-77
2024/01/01 02:35:53;;;;;;;0.30;0.30;;;;;;;;;;5068913;28;20140;-77
2024/01/01 02:38:20;;;;;;;0.10;0.10;;;;;;;;;;5069268;28;20048;-77
2024/01/01 02:40:46;;;;;;;0.10;0.10;;;;;;;;;;5067173;28;20053;-77
2024/01/01 02:43:13;;;;;;;0.13;0.13;;;;;;;;;;5051274;28;20049;-77
2024/01/01 02:45:39;;;;;;;0.47;0.47;;;;;;;;;;5068900;28;20053;-77
2024/01/01 02:48:06;;;;;;;0.10;0.10;;;;;;;;;;5049608;28;20126;-77
2024/01/01 02:50:33;;;;;;;0.10;0.10;;;;;;;;;;5069050;28;20049;-77
2024/01/01 02:52:59;;;;;;;0.10;0.10;;;;;;;;;;5069191;28;20052;-77
2024/01/01 02:55:26;;;;;;;0.10;0.10;;;;;;;;;;5050661;28;20052;-77
2024/01/01 02:57:52;;;;;;;0.10;0.10;;;;;;;;;;5069039;28;20143;-77
2024/01/01 03:00:19;;;;;;;0.10;0.10;;;;;;;;;;5069175;28;20064;-77
2024/01/01 03:02:45;;;;;;;0.10;0.10;;;;;;;;;;5069601;28;20080;-77
2024/01/01 03:05:11;;;;;;;0.10;0.10;;;;;;;;;;5063782;28;20049;-77
2024/01/01 03:07:39;;;;;;;0.10;0.10;;;;;;;;;;5068768;28;20057;-77
2024/01/01 03:10:05;;;;;;;0.10;0.10;;;;;;;;;;5069033;28;20067;-77
2024/01/01 03:12:32;;;;;;;0.10;0.10;;;;;;;;;;5068853;28;20060;-77
2024/01/01 03:15:00;;;;;;;0.20;0.20;;;;;;;;;;5068987;28;20557;-77
2024/01/01 03:17:26;;;;;;;0.10;0.10;;;;;;;;;;5069126;28;20072;-77
2024/01/01 03:19:53;;;;;;;0.10;0.10;;;;;;;;;;5068665;28;20430;-77
2024/01/01 03:22:19;;;;;;;0.10;0.10;;;;;;;;;;5069303;28;20755;-77
2024/01/01 03:24:46;;;;;;;0.10;0.10;;;;;;;;;;5060482;28;20053;-77
2024/01/01 03:27:12;;;;;;;0.10;0.10;;;;;;;;;;5063488;28;20501;-77
2024/01/01 03:29:38;;;;;;;0.10;0.10;;;;;;;;;;5069302;28;20127;-77
2024/01/01 03:32:05;;;;;;;0.10;0.10;;;;;;;;;;5069209;28;20139;-77
2024/01/01 03:34:33;;;;;;;0.10;0.10;;;;;;;;;;5066553;28;20152;-77
2024/01/01 03:36:59;;;;;;;0.10;0.10;;;;;;;;;;5073338;28;20057;-77
2024/01/01 03:39:26;;;;;;;0.10;0.10;;;;;;;;;;5068780;28;20084;-77
2024/01/01 03:41:52;;;;;;;0.10;0.10;;;;;;;;;;5043413;28;20056;-77
2024/01/01 03:44:19;;;;;;;0.45;0.45;;;;;;;;;;5067831;28;20099;-77
2024/01/01 03:46:45;;;;;;;0.10;0.10;;;;;;;;;;5068529;28;20634;-77
2024/01/01 03:49:12;;;;;;;0.20;0.20;;;;;;;;;;5068565;28;20140;-77
2024/01/01 03:51:38;;;;;;;0.10;0.10;;;;;;;;;;5067931;28;20091;-77
2024/01/01 03:54:05;;;;;;;0.10;0.10;;;;;;;;;;5055836;28;20056;-77
2024/01/01 03:56:31;;;;;;;0.20;0.20;;;;;;;;;;5067249;28;20111;-77
2024/01/01 03:58:58;;;;;;;0.20;0.20;;;;;;;;;;5068685;28;20041;-77
2024/01/01 04:01:26;;;;;;;0.10;0.10;;;;;;;;;;5068177;28;20087;-77
2024/01/01 04:03:55;;;;;;;0.10;0.10;;;;;;;;;;5067467;28;20481;-77
2024/01/01 04:06:21;;;;;;;0.10;0.10;;;;;;;;;;5050066;28;20048;-77
2024/01/01 04:08:48;;;;;;;0.10;0.10;;;;;;;;;;5068121;28;20529;-77
2024/01/01 04:11:14;;;;;;;0.10;0.10;;;;;;;;;;5068577;28;20049;-77
2024/01/01 04:13:40;;;;;;;0.10;0.10;;;;;;;;;;5068777;28;20101;-78
2024/01/01 04:16:08;;;;;;;0.10;0.10;;;;;;;;;;5068156;28;20838;-78
2024/01/01 04:18:34;;;;;;;0.47;0.47;;;;;;;;;;5068162;28;20045;-78
2024/01/01 04:21:01;;;;;;;0.10;0.10;;;;;;;;;;5068251;28;20056;-78
2024/01/01 04:23:27;;;;;;;0.10;0.10;;;;;;;;;;5063723;28;20134;-78
2024/01/01 04:25:54;;;;;;;0.10;0.10;;;;;;;;;;5067779;28;20507;-77
2024/01/01 04:28:20;;;;;;;0.10;0.10;;;;;;;;;;5067225;28;20061;-78
2024/01/01 04:30:46;;;;;;;0.85;0.47;;;;;;;;;;5067300;28;20137;-77
2024/01/01 04:33:13;;;;;;;0.30;0.30;;;;;;;;;;5063263;28;20568;-77
2024/01/01 04:35:40;;;;;;;1.25;0.90;;;;;;;;;;5049716;28;20049;-77
2024/01/01 04:38:06;;;;;;;0.10;0.10;;;;;;;;;;5048010;28;20412;-77
2024/01/01 04:40:34;;;;;;;0.10;0.10;;;;;;;;;;5061896;28;20059;-78
2024/01/01 04:43:00;;;;;;;0.10;0.10;;;;;;;;;;5066586;28;20068;-78
2024/01/01 04:45:27;;;;;;;0.10;0.10;;;;;;;;;;5067136;28;20894;-78
2024/01/01 04:47:54;;;;;;;0.10;0.10;;;;;;;;;;5061025;28;21004;-77
2024/01/01 04:50:20;;;;;;;0.10;0.10;;;;;;;;;;5039997;28;20081;-78
2024/01/01 04:52:47;;;;;;;0.10;0.10;;;;;;;;;;5065545;28;20060;-78
2024/01/01 04:55:13;;;;;;;0.10;0.10;;;;;;;;;;5067526;28;20110;-77
2024/01/01 04:57:40;;;;;;;0.10;0.10;;;;;;;;;;5065213;28;20068;-77
2024/01/01 05:00:07;;;;;;;0.30;0.30;;;;;;;;;;5067490;28;20536;-77
2024/01/01 05:02:33;;;;;;;0.10;0.10;;;;;;;;;;5055189;28;20087;-77
2024/01/01 05:04:59;;;;;;;0.10;0.10;;;;;;;;;;5067007;28;20507;-77
2024/01/01 05:07:26;;;;;;;0.10;0.10;;;;;;;;;;5049042;28;20860;-78
2024/01/01 05:09:52;;;;;;;0.20;0.20;;;;;;;;;;5067090;28;20057;-78
2024/01/01 05:12:19;;;;;;;0.35;0.35;;;;;;;;;;5066141;28;20522;-78
2024/01/01 05:14:45;;;;;;;0.10;0.10;;;;;;;;;;5059639;28;20103;-78
2024/01/01 05:17:11;;;;;;;0.10;0.10;;;;;;;;;;5066961;28;20060;-78
2024/01/01 05:19:38;;;;;;;0.10;0.10;;;;;;;;;;5073019;28;20057;-78
2024/01/01 05:22:05;;;;;;;0.10;0.10;;;;;;;;;;5067669;28;20059;-78
2024/01/01 05:24:31;;;;;;;0.10;0.10;;;;;;;;;;5067007;28;20132;-78
2024/01/01 05:26:57;;;;;;;0.10;0.10;;;;;;;;;;5065165;28;20507;-78
2024/01/01 05:29:24;;;;;;;2.58;0.93;;;;;;;;;;5065383;28;20049;-78
2024/01/01 05:31:50;;;;;;;0.10;0.10;;;;;;;;;;5045259;28;20056;-78
2024/01/01 05:34:17;;;;;;;0.10;0.10;;;;;;;;;;5101709;22;20543;-77
2024/01/01 05:36:43;;;;;;;0.10;0.10;;;;;;;;;;5108976;27;20052;-79
2024/01/01 05:39:10;;;;;;;0.10;0.10;;;;;;;;;;5081333;28;20055;-77
2024/01/01 05:41:36;;;;;;;0.10;0.10;;;;;;;;;;5106914;27;20052;-78
2024/01/01 05:44:02;;;;;;;0.88;0.68;;;;;;;;;;5086613;28;20049;-77
2024/01/01 05:46:31;;;;;;;0.10;0.10;;;;;;;;;;5080202;28;20619;-77
2024/01/01 05:48:58;;;;;;;0.10;0.10;;;;;;;;;;5090897;28;20048;-77
2024/01/01 05:51:24;;;;;;;0.10;0.10;;;;;;;;;;5077201;28;20060;-77
2024/01/01 05:53:51;;;;;;;0.13;0.13;;;;;;;;;;5104872;28;20059;-77
2024/01/01 05:56:17;;;;;;;0.10;0.10;;;;;;;;;;5088163;28;20057;-78
2024/01/01 05:58:43;;;;;;;0.10;0.10;;;;;;;;;;5101743;28;20502;-78
2024/01/01 06:01:10;;;;;;;0.10;0.10;;;;;;;;;;5082524;28;20057;-78
2024/01/01 06:03:37;;;;;;;0.10;0.10;;;;;;;;;;5085467;28;20056;-78
2024/01/01 06:06:03;;;;;;;0.10;0.10;;;;;;;;;;5104207;28;20092;-77
2024/01/01 06:08:30;;;;;;;0.10;0.10;;;;;;;;;;5107905;27;21027;-78
2024/01/01 06:10:56;;;;;;;0.10;0.10;;;;;;;;;;5106052;27;20061;-77
2024/01/01 06:13:24;;;;;;;0.00;0.00;;;;;;;;;;5086860;28;20055;-78
2024/01/01 06:15:51;;;;;;;0.10;0.10;;;;;;;;;;5108218;27;20439;-78
2024/01/01 06:18:17;;;;;;;0.10;0.10;;;;;;;;;;5084195;28;20048;-77
2024/01/01 06:20:45;;;;;;;0.10;0.10;;;;;;;;;;5095046;28;20052;-78
2024/01/01 06:23:11;;;;;;;0.10;0.10;;;;;;;;;;5107258;28;20064;-77
2024/01/01 06:25:38;;;;;;;0.10;0.10;;;;;;;;;;5082984;28;20059;-78
2024/01/01 06:28:04;;;;;;;0.10;0.10;;;;;;;;;;5110980;27;20986;-77
2024/01/01 06:30:32;;;;;;;0.10;0.10;;;;;;;;;;5101621;28;20082;-77
2024/01/01 06:33:01;;;;;;;0.10;0.10;;;;;;;;;;5108525;27;20477;-77
2024/01/01 06:35:30;;;;;;;0.10;0.10;;;;;;;;;;5104063;28;20052;-78
2024/01/01 06:37:57;;;;;;;0.10;0.10;;;;;;;;;;5093285;27;20055;-77
2024/01/01 06:40:23;;;;;;;0.10;0.10;;;;;;;;;;5085902;27;20052;-78
2024/01/01 06:42:50;;;;;;;0.10;0.10;;;;;;;;;;5091116;28;20137;-78
2024/01/01 06:45:17;;;;;;;0.10;0.10;;;;;;;;;;5105568;28;20117;-78
2024/01/01 06:47:43;;;;;;;0.10;0.10;;;;;;;;;;5092959;28;20923;-80
2024/01/01 06:50:10;;;;;;;0.10;0.10;;;;;;;;;;5108030;28;20071;-78
2024/01/01 06:52:36;;;;;;;0.10;0.10;;;;;;;;;;5086215;28;20051;-78
2024/01/01 06:55:03;;;;;;;0.10;0.10;;;;;;;;;;5085254;28;20549;-78
2024/01/01 06:57:30;;;;;;;0.10;0.10;;;;;;;;;;5106383;27;20064;-78
2024/01/01 06:59:56;;;;;;;0.10;0.10;;;;;;;;;;5088778;28;20524;-78
2024/01/01 07:02:22;;;;;;;0.10;0.10;;;;;;;;;;5083454;28;20087;-78
2024/01/01 07:04:49;;;;;;;0.10;0.10;;;;;;;;;;5105749;28;20060;-78
2024/01/01 07:07:15;;;;;;;0.10;0.10;;;;;;;;;;5077738;28;20531;-78
2024/01/01 07:09:42;;;;;;;0.10;0.10;;;;;;;;;;5075545;28;20056;-77
2024/01/01 07:12:21;;;;;;;0.10;0.10;;;;;;;;;;5089787;28;20052;-78
2024/01/01 07:14:47;;;;;;;0.10;0.10;;;;;;;;;;5086334;28;20056;-78
2024/01/01 07:17:13;;;;;;;0.10;0.10;;;;;;;;;;5111327;28;20036;-78
2024/01/01 07:19:40;;;;;;;0.10;0.10;;;;;;;;;;5102127;28;20062;-78
2024/01/01 07:22:06;;;;;;;0.17;0.17;;;;;;;;;;5100177;28;20058;-79
2024/01/01 07:24:33;;;;;;;0.10;0.10;;;;;;;;;;5080303;28;20518;-77
2024/01/01 07:26:59;;;;;;;0.10;0.10;;;;;;;;;;5090404;28;20105;-78
2024/01/01 07:29:27;;;;;;;0.10;0.10;;;;;;;;;;5092334;28;20055;-77
2024/01/01 07:31:54;;;;;;;0.10;0.10;;;;;;;;;;5089175;28;20142;-78
2024/01/01 07:34:21;;;;;;;0.20;0.20;;;;;;;;;;5099602;28;20892;-79
2024/01/01 07:36:50;;;;;;;0.10;0.10;;;;;;;;;;5093781;28;20044;-78
2024/01/01 07:39:19;;;;;;;0.10;0.10;;;;;;;;;;5090599;28;20091;-79
2024/01/01 07:41:48;;;;;;;0.10;0.10;;;;;;;;;;5107177;27;20060;-79
2024/01/01 07:44:15;;;;;;;0.10;0.10;;;;;;;;;;5093799;28;20060;-79
2024/01/01 07:46:42;;;;;;;0.10;0.10;;;;;;;;;;5108328;28;20052;-78
2024/01/01 07:49:08;;;;;;;0.10;0.10;;;;;;;;;;5112320;28;20527;-79
2024/01/01 07:51:35;;;;;;;0.10;0.10;;;;;;;;;;5110053;27;20060;-79
2024/01/01 07:54:01;;;;;;;0.10;0.10;;;;;;;;;;5113333;27;20155;-79
2024/01/01 07:56:28;;;;;;;0.10;0.10;;;;;;;;;;5093136;28;20056;-79
2024/01/01 07:58:55;;;;;;;0.10;0.10;;;;;;;;;;5084052;28;20051;-78
2024/01/01 08:01:23;;;;;;;0.10;0.10;;;;;;;;;;5086742;28;20049;-78
2024/01/01 08:03:50;;;;;;;0.10;0.10;;;;;;;;;;5104462;27;20063;-78
2024/01/01 08:06:17;;;;;;;0.10;0.10;;;;;;;;;;5109699;28;20048;-79
2024/01/01 08:08:44;;;;;;;0.10;0.10;;;;;;;;;;5087505;28;20044;-77
2024/01/01 08:11:10;;;;;;;0.10;0.10;;;;;;;;;;5089651;28;20059;-77
2024/01/01 08:13:40;;;;;;;0.10;0.10;;;;;;;;;;5092127;28;20840;-77
2024/01/01 08:16:09;;;;;;;0.10;0.10;;;;;;;;;;5089721;28;20046;-77
2024/01/01 08:18:36;;;;;;;0.10;0.10;;;;;;;;;;5091414;28;20536;-77
2024/01/01 08:21:03;;;;;;;0.10;0.10;;;;;;;;;;5090411;28;20058;-77
2024/01/01 08:23:31;;;;;;;0.10;0.10;;;;;;;;;;5099803;27;20061;-77
2024/01/01 08:25:57;;;;;;;0.57;0.57;;;;;;;;;;5105987;27;20612;-78
2024/01/01 08:28:28;;;;;;;;;;;;;;;;;;5108213;28;20054;-77
2024/01/01 08:30:54;;;;;;;0.10;0.10;;;;;;;;;;5090559;27;44791;-77
2024/01/01 08:33:21;;;;;;;0.10;0.10;;;;;;;;;;5104077;27;20142;-76
2024/01/01 08:35:53;;;;;;;0.10;0.10;;;;;;;;;;5105817;27;20131;-77
2024/01/01 08:38:19;;;;;;;0.10;0.10;;;;;;;;;;5082222;27;20052;-77
2024/01/01 08:40:46;;;;;;;0.10;0.10;;;;;;;;;;5108269;27;20629;-76
2024/01/01 08:43:13;;;;;;;0.10;0.10;;;;;;;;;;5082409;28;20161;-76
2024/01/01 08:45:39;;;;;;;0.10;0.10;;;;;;;;;;5084365;28;20475;-77
2024/01/01 08:48:09;;;;;;;0.10;0.10;;;;;;;;;;5104931;27;20518;-77
2024/01/01 08:50:36;;;;;;;0.10;0.10;;;;;;;;;;5076217;28;20501;-77
2024/01/01 08:53:03;;;;;;;0.10;0.10;;;;;;;;;;5087463;28;20057;-77
2024/01/01 08:55:29;;;;;;;0.10;0.10;;;;;;;;;;5105851;28;20049;-77
2024/01/01 08:57:57;;;;;;;0.10;0.10;;;;;;;;;;5108028;28;20137;-77
2024/01/01 09:00:33;;;;;;;0.20;0.20;;;;;;;;;;5104913;28;20086;-77
2024/01/01 09:03:02;;;;;;;0.10;0.10;;;;;;;;;;5107230;28;20048;-78
2024/01/01 09:05:28;;;;;;;0.10;0.10;;;;;;;;;;5108423;27;20325;-77
2024/01/01 09:07:55;;;;;;;0.10;0.10;;;;;;;;;;5082284;28;20122;-78
2024/01/01 09:10:21;;;;;;;0.10;0.10;;;;;;;;;;5079048;27;20183;-78
2024/01/01 09:12:48;;;;;;;0.10;0.10;;;;;;;;;;5099393;27;20064;-78
2024/01/01 09:15:17;;;;;;;0.10;0.10;;;;;;;;;;5096672;27;20132;-78
2024/01/01 09:17:44;;;;;;;0.10;0.10;;;;;;;;;;5081740;27;20600;-77
2024/01/01 09:20:11;;;;;;;0.10;0.10;;;;;;;;;;5104311;27;20062;-80
2024/01/01 09:22:38;;;;;;;0.10;0.10;;;;;;;;;;5081689;28;20511;-77
2024/01/01 09:25:05;;;;;;;0.10;0.10;;;;;;;;;;5098040;28;20052;-78
2024/01/01 09:27:31;;;;;;;0.10;0.10;;;;;;;;;;5094682;28;20057;-79
2024/01/01 09:29:58;;;;;;;0.10;0.10;;;;;;;;;;5095269;27;20508;-78
2024/01/01 09:32:24;;;;;;;0.10;0.10;;;;;;;;;;5082296;27;20502;-78
2024/01/01 09:34:51;;;;;;;0.10;0.10;;;;;;;;;;5088070;27;20052;-76
2024/01/01 09:37:18;;;;;;;0.10;0.10;;;;;;;;;;5094615;27;20591;-78
2024/01/01 09:39:47;;;;;;;0.10;0.10;;;;;;;;;;5080282;28;20056;-78
2024/01/01 09:42:14;;;;;;;0.10;0.10;;;;;;;;;;5104021;28;20180;-77
2024/01/01 09:44:40;;;;;;;0.10;0.10;;;;;;;;;;5108808;27;20056;-79
2024/01/01 09:47:07;;;;;;;0.10;0.10;;;;;;;;;;5103167;27;20057;-79
2024/01/01 09:49:34;;;;;;;0.10;0.10;;;;;;;;;;5104555;28;20055;-79
2024/01/01 09:52:02;;;;;;;0.10;0.10;;;;;;;;;;5105524;27;20506;-79
2024/01/01 09:54:29;;;;;;;0.10;0.10;;;;;;;;;;5108294;27;20048;-78
2024/01/01 09:56:55;;;;;;;0.13;0.13;;;;;;;;;;5102596;28;20460;-79
2024/01/01 09:59:32;;;;;;;0.10;0.10;;;;;;;;;;5080347;28;20144;-79
2024/01/01 10:02:05;;;;;;;0.10;0.10;;;;;;;;;;5094853;28;20055;-79
2024/01/01 10:04:32;;;;;;;0.10;0.10;;;;;;;;;;5095415;28;20063;-78
2024/01/01 10:06:59;;;;;;;0.10;0.10;;;;;;;;;;5083717;28;20059;-80
2024/01/01 10:09:26;;;;;;;0.10;0.10;;;;;;;;;;5091307;27;20055;-80
2024/01/01 10:12:06;;;;;;;0.10;0.10;;;;;;;;;;5110502;28;20052;-79
2024/01/01 10:14:43;;;;;;;0.10;0.10;;;;;;;;;;5088988;28;20886;-80
2024/01/01 10:17:12;;;;;;;0.10;0.10;;;;;;;;;;5091979;28;20052;-80
2024/01/01 10:19:48;;;;;;;0.10;0.10;;;;;;;;;;5103083;27;20120;-79
2024/01/01 10:22:18;;;;;;;0.10;0.10;;;;;;;;;;5109090;27;20519;-79
2024/01/01 10:24:45;;;;;;;0.10;0.10;;;;;;;;;;5103769;28;20099;-79
2024/01/01 10:27:15;;;;;;;0.10;0.10;;;;;;;;;;5108664;27;20052;-78
2024/01/01 10:29:42;;;;;;;0.10;0.10;;;;;;;;;;5088593;28;20248;-79
2024/01/01 10:32:09;;;;;;;0.10;0.10;;;;;;;;;;5109640;28;20052;-78
2024/01/01 10:34:37;;;;;;;1.23;1.23;;;;;;;;;;5106960;28;20055;-79
2024/01/01 10:37:05;;;;;;;0.10;0.10;;;;;;;;;;5086438;28;20061;-76
2024/01/01 10:39:33;;;;;;;0.45;0.45;;;;;;;;;;5084583;28;20693;-78
2024/01/01 10:42:04;;;;;;;0.10;0.10;;;;;;;;;;5108336;28;20056;-77
2024/01/01 10:44:31;;;;;;;0.10;0.10;;;;;;;;;;5072579;28;20066;-78
2024/01/01 10:46:59;;;;;;;0.10;0.10;;;;;;;;;;5105419;27;20056;-77
2024/01/01 10:49:30;;;;;;;0.10;0.10;;;;;;;;;;5107474;27;20143;-79
2024/01/01 10:51:56;;;;;;;0.10;0.10;;;;;;;;;;5107143;27;20052;-79
2024/01/01 10:54:42;;;;;;;0.10;0.10;;;;;;;;;;5081338;28;20147;-78
2024/01/01 10:57:19;;;;;;;0.20;0.20;;;;;;;;;;5083474;28;20131;-79
2024/01/01 10:59:56;;;;;;;0.10;0.10;;;;;;;;;;5085495;28;20052;-78
2024/01/01 11:02:23;;;;;;;0.10;0.10;;;;;;;;;;5086819;28;20052;-78
2024/01/01 11:05:09;;;;;;;0.10;0.10;;;;;;;;;;5083539;28;20064;-79
2024/01/01 11:07:51;;;;;;;0.20;0.20;;;;;;;;;;5082094;28;20490;-78
2024/01/01 11:10:36;;;;;;;0.10;0.10;;;;;;;;;;5108174;27;20511;-78
2024/01/01 11:13:09;;;;;;;0.10;0.10;;;;;;;;;;5101649;28;20075;-79
2024/01/01 11:15:40;;;;;;;0.10;0.10;;;;;;;;;;5099962;27;20060;-79
2024/01/01 11:18:17;;;;;;;0.25;0.25;;;;;;;;;;5107288;28;20051;-79
2024/01/01 11:20:50;;;;;;;0.10;0.10;;;;;;;;;;5086937;27;20121;-78
2024/01/01 11:23:46;;;;;;;0.10;0.10;;;;;;;;;;5091273;28;20059;-78
2024/01/01 11:26:22;;;;;;;0.10;0.10;;;;;;;;;;5075225;28;20267;-78
2024/01/01 11:28:52;;;;;;;0.10;0.10;;;;;;;;;;5082681;28;20052;-78
2024/01/01 11:31:19;;;;;;;0.10;0.10;;;;;;;;;;5082111;28;20531;-77
2024/01/01 11:33:45;;;;;;;0.10;0.10;;;;;;;;;;5085619;28;20105;-78
2024/01/01 11:36:12;;;;;;;3.97;3.72;;;;;;;;;;5107941;27;20167;-77
2024/01/01 11:38:38;;;;;;;0.20;0.20;;;;;;;;;;5146368;22;20056;-81
2024/01/01 11:41:05;;;;;;;0.10;0.10;;;;;;;;;;5087091;28;20658;-80
2024/01/01 11:43:33;;;;;;;0.10;0.10;;;;;;;;;;5082921;28;20040;-81
2024/01/01 11:45:59;;;;;;;0.10;0.10;;;;;;;;;;5086768;28;20061;-80
2024/01/01 11:48:28;;;;;;;0.28;0.28;;;;;;;;;;5076610;28;20069;-82
2024/01/01 11:51:02;;;;;;;0.30;0.30;;;;;;;;;;5069784;28;20049;-82
2024/01/01 11:53:28;;;;;;;0.10;0.10;;;;;;;;;;5068150;28;20064;-82
2024/01/01 11:56:04;;;;;;;0.22;0.22;;;;;;;;;;5062245;28;20053;-82
2024/01/01 11:58:30;;;;;;;0.10;0.10;;;;;;;;;;5064345;28;20049;-82
2024/01/01 12:00:57;;;;;;;0.10;0.10;;;;;;;;;;5069173;28;20135;-80
2024/01/01 12:03:23;;;;;;;0.10;0.10;;;;;;;;;;5063171;28;20053;-81
2024/01/01 12:06:00;;;;;;;0.10;0.10;;;;;;;;;;5063902;28;20057;-80
2024/01/01 12:08:26;;;;;;;0.10;0.10;;;;;;;;;;5066374;28;20544;-81
2024/01/01 12:10:59;;;;;;;0.10;0.10;;;;;;;;;;5065768;28;20056;-81
2024/01/01 12:13:26;;;;;;;0.10;0.10;;;;;;;;;;5062698;28;20053;-81
2024/01/01 12:15:53;;;;;;;0.10;0.10;;;;;;;;;;5063089;28;20053;-81
2024/01/01 12:18:20;;;;;;;0.10;0.10;;;;;;;;;;5063612;28;20526;-81
2024/01/01 12:20:46;;;;;;;11.32;3.50;;;;;;;;;;5063498;28;20069;-80
2024/01/01 12:23:13;;;;;;;0.10;0.10;;;;;;;;;;5060748;28;20053;-79
2024/01/01 12:25:40;;;;;;;0.10;0.10;;;;;;;;;;5059003;28;20057;-81
2024/01/01 12:28:07;;;;;;;0.10;0.10;;;;;;;;;;5063789;28;20065;-82
2024/01/01 12:30:34;;;;;;;0.17;0.17;;;;;;;;;;5065150;28;20103;-82
2024/01/01 12:33:01;;;;;;;0.10;0.10;;;;;;;;;;5066469;28;20170;-82
2024/01/01 12:35:27;;;;;;;0.20;0.20;;;;;;;;;;5064754;28;20057;-82
2024/01/01 12:37:54;;;;;;;0.10;0.10;;;;;;;;;;5064220;28;20049;-82
2024/01/01 12:40:21;;;;;;;0.10;0.10;;;;;;;;;;5061256;28;20053;-80
2024/01/01 12:42:47;;;;;;;0.15;0.15;;;;;;;;;;5059913;28;20092;-84
2024/01/01 12:45:14;;;;;;;0.10;0.10;;;;;;;;;;5061520;28;20136;-83
2024/01/01 12:47:40;;;;;;;0.10;0.10;;;;;;;;;;5061128;28;20048;-81
2024/01/01 12:50:07;;;;;;;0.10;0.10;;;;;;;;;;5065544;28;20060;-82
2024/01/01 12:52:38;;;;;;;0.10;0.10;;;;;;;;;;5053783;28;20057;-81
2024/01/01 12:55:04;;;;;;;;;;;;;;;;;;5065689;28;20079;-82
2024/01/01 12:57:31;;;;;;;0.20;0.20;;;;;;;;;;5068019;28;45825;-82
2024/01/01 12:59:57;;;;;;;0.10;0.10;;;;;;;;;;5067740;28;20092;-81
2024/01/01 13:02:24;;;;;;;0.10;0.10;;;;;;;;;;5067903;28;20053;-82
2024/01/01 13:04:50;;;;;;;0.10;0.10;;;;;;;;;;5054960;28;20141;-82
2024/01/01 13:07:16;;;;;;;0.10;0.10;;;;;;;;;;5064880;28;20523;-82
2024/01/01 13:09:43;;;;;;;0.10;0.10;;;;;;;;;;5064696;28;20053;-81
2024/01/01 13:12:10;;;;;;;0.10;0.10;;;;;;;;;;5058567;28;20494;-81
2024/01/01 13:14:40;;;;;;;0.10;0.10;;;;;;;;;;5069037;28;20052;-82
2024/01/01 13:17:06;;;;;;;0.10;0.10;;;;;;;;;;5065811;28;20060;-81
2024/01/01 13:19:32;;;;;;;0.10;0.10;;;;;;;;;;5061110;28;20561;-81
2024/01/01 13:21:59;;;;;;;0.20;0.20;;;;;;;;;;5064800;28;20057;-82
2024/01/01 13:24:26;;;;;;;0.10;0.10;;;;;;;;;;5066083;28;20049;-82
2024/01/01 13:26:54;;;;;;;0.17;0.17;;;;;;;;;;5070715;28;20060;-82
2024/01/01 13:29:20;;;;;;;0.20;0.20;;;;;;;;;;5068582;28;20111;-82
2024/01/01 13:31:47;;;;;;;0.10;0.10;;;;;;;;;;5070946;28;20074;-82
2024/01/01 13:34:14;;;;;;;0.55;0.55;;;;;;;;;;5071356;28;20048;-82
2024/01/01 13:36:40;;;;;;;0.82;0.82;;;;;;;;;;5073481;28;20049;-82
2024/01/01 13:39:07;;;;;;;4.30;2.05;;;;;;;;;;5069019;28;20060;-82
2024/01/01 13:41:34;;;;;;;0.10;0.10;;;;;;;;;;5057955;28;20081;-82
2024/01/01 13:44:00;;;;;;;1.08;1.02;;;;;;;;;;5073889;28;20056;-82
2024/01/01 13:46:26;;;;;;;0.10;0.10;;;;;;;;;;5072232;28;20088;-81
2024/01/01 13:48:53;;;;;;;0.10;0.10;;;;;;;;;;5072675;28;20060;-82
2024/01/01 13:51:19;;;;;;;0.10;0.10;;;;;;;;;;5072735;28;20053;-82
2024/01/01 13:53:46;;;;;;;0.10;0.10;;;;;;;;;;5066364;28;20087;-82
2024/01/01 13:56:18;;;;;;;0.10;0.10;;;;;;;;;;5073246;28;20063;-82
2024/01/01 13:58:45;;;;;;;0.10;0.10;;;;;;;;;;5076050;28;20175;-81
2024/01/01 14:01:12;;;;;;;0.10;0.10;;;;;;;;;;5070681;28;20941;-83
2024/01/01 14:03:40;;;;;;;0.10;0.10;;;;;;;;;;5062254;28;20053;-82
2024/01/01 14:06:07;;;;;;;0.10;0.10;;;;;;;;;;5077992;28;20337;-83
2024/01/01 14:08:33;;;;;;;0.10;0.10;;;;;;;;;;5070053;28;20061;-81
2024/01/01 14:11:03;;;;;;;0.10;0.10;;;;;;;;;;5068981;28;20166;-85
2024/01/01 14:13:30;;;;;;;0.10;0.10;;;;;;;;;;5065481;28;20076;-84
2024/01/01 14:15:56;;;;;;;0.10;0.10;;;;;;;;;;5064288;28;20564;-84
2024/01/01 14:18:24;;;;;;;0.10;0.10;;;;;;;;;;5068866;28;20060;-83
2024/01/01 14:20:51;;;;;;;0.10;0.10;;;;;;;;;;5068179;28;20156;-80
2024/01/01 14:23:17;;;;;;;0.10;0.10;;;;;;;;;;5069224;28;20140;-80
2024/01/01 14:25:45;;;;;;;0.10;0.10;;;;;;;;;;5068143;28;20152;-80
2024/01/01 14:28:12;;;;;;;0.10;0.10;;;;;;;;;;5069389;28;20060;-83
2024/01/01 14:30:38;;;;;;;0.10;0.10;;;;;;;;;;5067349;28;20052;-79
2024/01/01 14:33:05;;;;;;;0.73;0.68;;;;;;;;;;5067068;28;20358;-80
2024/01/01 14:35:32;;;;;;;0.10;0.10;;;;;;;;;;5066483;28;20056;-83
2024/01/01 14:37:59;;;;;;;0.10;0.10;;;;;;;;;;5061583;28;20060;-81
2024/01/01 14:40:26;;;;;;;0.10;0.10;;;;;;;;;;5070464;28;20061;-81
2024/01/01 14:42:52;;;;;;;0.10;0.10;;;;;;;;;;5060968;28;20053;-81
2024/01/01 14:45:19;;;;;;;0.10;0.10;;;;;;;;;;5061544;28;20475;-81